createdAt,value
2023-08-13T00:02:13.313Z,3.33
2023-08-13T00:04:43.252Z,3.90
2023-08-13T00:07:12.344Z,3.03
2023-08-13T00:09:42.746Z,3.05
2023-08-13T00:12:11.556Z,3.33
2023-08-13T00:14:40.131Z,3.83
2023-08-13T00:17:09.348Z,3.42
2023-08-13T00:19:37.726Z,3.10
2023-08-13T00:22:11.194Z,3.53
2023-08-13T00:24:39.458Z,3.70
2023-08-13T00:27:07.844Z,3.65
2023-08-13T00:29:38.898Z,3.08
2023-08-13T00:32:07.754Z,3.03
2023-08-13T00:34:36.097Z,3.30
2023-08-13T00:37:05.923Z,4.15
2023-08-13T00:39:34.693Z,3.47
2023-08-13T00:42:02.999Z,3.97
2023-08-13T00:44:31.376Z,3.60
2023-08-13T00:46:59.894Z,2.92
2023-08-13T00:49:28.415Z,3.90
2023-08-13T00:51:57.802Z,3.22
2023-08-13T00:54:27.800Z,3.53
2023-08-13T00:56:56.490Z,3.53
2023-08-13T00:59:25.938Z,3.55
2023-08-13T01:01:54.457Z,3.55
2023-08-13T01:04:22.843Z,3.30
2023-08-13T01:07:03.540Z,3.38
2023-08-13T01:09:43.532Z,3.65
2023-08-13T01:12:24.577Z,3.13
2023-08-13T01:15:08.955Z,3.53
2023-08-13T01:17:38.874Z,3.67
2023-08-13T01:20:09.490Z,3.35
2023-08-13T01:22:48.353Z,3.13
2023-08-13T01:25:18.780Z,3.22
2023-08-13T01:27:54.508Z,3.85
2023-08-13T01:30:31.482Z,3.63
2023-08-13T01:33:04.385Z,3.35
2023-08-13T01:35:34.786Z,3.33
2023-08-13T01:38:06.704Z,3.55
2023-08-13T01:40:35.332Z,3.38
2023-08-13T01:43:04.088Z,3.00
2023-08-13T01:45:33.848Z,3.55
2023-08-13T01:48:02.296Z,3.47
2023-08-13T01:50:32.229Z,3.50
2023-08-13T01:53:00.672Z,3.42
2023-08-13T01:55:30.622Z,3.83
2023-08-13T01:57:59.428Z,3.67
2023-08-13T02:00:27.772Z,4.05
2023-08-13T02:02:57.172Z,3.63
2023-08-13T02:05:25.541Z,3.88
2023-08-13T02:07:54.532Z,4.72
2023-08-13T02:10:22.874Z,3.45
2023-08-13T02:12:52.552Z,4.63
2023-08-13T02:15:21.009Z,3.65
2023-08-13T02:17:49.448Z,4.35
2023-08-13T02:20:19.840Z,4.45
2023-08-13T02:22:48.438Z,3.67
2023-08-13T02:25:17.295Z,4.38
2023-08-13T02:27:45.761Z,5.07
2023-08-13T02:30:17.004Z,5.10
2023-08-13T02:32:45.466Z,3.85
2023-08-13T02:35:14.081Z,4.60
2023-08-13T02:37:43.285Z,3.95
2023-08-13T02:40:13.083Z,4.25
2023-08-13T02:42:41.816Z,4.38
2023-08-13T02:45:11.280Z,3.60
2023-08-13T02:47:41.198Z,3.50
2023-08-13T02:50:11.224Z,3.58
2023-08-13T02:52:39.777Z,3.60
2023-08-13T02:55:09.106Z,4.13
2023-08-13T02:57:43.414Z,3.80
2023-08-13T03:00:16.405Z,3.85
2023-08-13T03:02:46.199Z,3.35
2023-08-13T03:05:14.625Z,3.70
2023-08-13T03:07:43.055Z,4.05
2023-08-13T03:10:12.001Z,4.15
2023-08-13T03:12:40.589Z,4.22
2023-08-13T03:15:10.524Z,4.15
2023-08-13T03:17:39.016Z,3.92
2023-08-13T03:20:10.759Z,4.30
2023-08-13T03:22:39.174Z,4.03
2023-08-13T03:25:08.570Z,3.72
2023-08-13T03:27:36.985Z,3.60
2023-08-13T03:30:06.406Z,4.18
2023-08-13T03:32:34.746Z,3.63
2023-08-13T03:35:03.564Z,3.60
2023-08-13T03:37:33.647Z,4.10
2023-08-13T03:40:02.141Z,3.70
2023-08-13T03:42:32.171Z,3.88
2023-08-13T03:45:02.422Z,3.45
2023-08-13T03:47:30.870Z,3.20
2023-08-13T03:49:59.281Z,4.07
2023-08-13T03:52:27.664Z,3.75
2023-08-13T03:54:57.614Z,3.70
2023-08-13T03:57:26.016Z,3.75
2023-08-13T03:59:54.399Z,3.60
2023-08-13T04:02:22.944Z,3.58
2023-08-13T04:04:51.346Z,3.08
2023-08-13T04:07:20.425Z,3.42
2023-08-13T04:09:48.988Z,3.63
2023-08-13T04:12:18.789Z,3.67
2023-08-13T04:14:47.210Z,3.28
2023-08-13T04:17:15.618Z,4.25
2023-08-13T04:19:43.919Z,3.67
2023-08-13T04:22:12.661Z,3.47
2023-08-13T04:24:41.658Z,3.40
2023-08-13T04:27:10.078Z,3.45
2023-08-13T04:29:39.829Z,3.10
2023-08-13T04:32:08.630Z,3.70
2023-08-13T04:34:37.139Z,3.55
2023-08-13T04:37:06.043Z,3.50
2023-08-13T04:39:34.719Z,4.18
2023-08-13T04:42:06.061Z,3.50
2023-08-13T04:44:34.517Z,4.07
2023-08-13T04:47:04.243Z,3.88
2023-08-13T04:49:32.842Z,3.65
2023-08-13T04:52:01.096Z,3.13
2023-08-13T04:54:29.693Z,3.58
2023-08-13T04:56:58.204Z,3.38
2023-08-13T04:59:26.771Z,4.25
2023-08-13T05:01:55.145Z,3.15
2023-08-13T05:04:25.278Z,3.40
2023-08-13T05:06:53.752Z,3.47
2023-08-13T05:09:22.198Z,2.67
2023-08-13T05:11:50.882Z,3.20
2023-08-13T05:14:19.460Z,2.97
2023-08-13T05:16:48.114Z,3.55
2023-08-13T05:19:17.157Z,3.40
2023-08-13T05:21:47.212Z,2.90
2023-08-13T05:24:15.656Z,3.13
2023-08-13T05:26:44.338Z,3.60
2023-08-13T05:29:12.736Z,3.42
2023-08-13T05:31:41.089Z,3.00
2023-08-13T05:34:09.586Z,2.85
2023-08-13T05:36:38.081Z,3.22
2023-08-13T05:39:09.019Z,2.95
2023-08-13T05:41:37.412Z,3.30
2023-08-13T05:44:06.296Z,3.60
2023-08-13T05:46:35.176Z,3.30
2023-08-13T05:49:03.686Z,3.25
2023-08-13T05:51:32.261Z,3.35
2023-08-13T05:54:00.615Z,3.15
2023-08-13T05:56:31.861Z,2.95
2023-08-13T05:59:00.647Z,3.22
2023-08-13T06:01:29.751Z,3.13
2023-08-13T06:03:58.284Z,3.08
2023-08-13T06:06:29.873Z,3.05
2023-08-13T06:08:58.456Z,2.97
2023-08-13T06:11:27.043Z,3.47
2023-08-13T06:13:58.947Z,2.95
2023-08-13T06:16:27.523Z,3.60
2023-08-13T06:18:56.381Z,3.58
2023-08-13T06:21:24.883Z,2.92
2023-08-13T06:23:56.260Z,3.40
2023-08-13T06:26:24.718Z,3.03
2023-08-13T06:28:56.067Z,2.95
2023-08-13T06:31:41.436Z,2.97
2023-08-13T06:34:11.781Z,3.03
2023-08-13T06:36:40.521Z,3.15
2023-08-13T06:39:09.555Z,3.03
2023-08-13T06:41:37.895Z,2.60
2023-08-13T06:44:08.135Z,2.60
2023-08-13T06:46:37.971Z,2.35
2023-08-13T06:49:09.221Z,2.75
2023-08-13T06:51:37.762Z,2.83
2023-08-13T06:54:07.313Z,3.28
2023-08-13T06:56:40.101Z,2.67
2023-08-13T06:59:08.546Z,2.58
2023-08-13T07:01:38.479Z,2.88
2023-08-13T07:04:08.263Z,2.55
2023-08-13T07:06:38.799Z,2.95
2023-08-13T07:09:08.226Z,2.38
2023-08-13T07:11:37.613Z,2.90
2023-08-13T07:14:06.312Z,2.53
2023-08-13T07:16:37.190Z,2.85
2023-08-13T07:19:09.490Z,2.83
2023-08-13T07:21:38.632Z,2.63
2023-08-13T07:24:07.997Z,2.53
2023-08-13T07:26:39.235Z,2.60
2023-08-13T07:29:08.764Z,2.47
2023-08-13T07:31:37.302Z,2.40
2023-08-13T07:34:07.372Z,2.85
2023-08-13T07:36:36.100Z,2.78
2023-08-13T07:39:04.922Z,2.90
2023-08-13T07:41:33.630Z,2.53
2023-08-13T07:44:02.214Z,2.53
2023-08-13T07:46:30.682Z,2.58
2023-08-13T07:48:59.262Z,3.22
2023-08-13T07:51:29.181Z,2.40
2023-08-13T07:54:06.796Z,2.22
2023-08-13T07:56:35.272Z,2.60
2023-08-13T07:59:03.763Z,2.85
2023-08-13T08:01:32.088Z,2.83
2023-08-13T08:04:00.690Z,3.15
2023-08-13T08:06:31.356Z,2.40
2023-08-13T08:09:00.112Z,3.10
2023-08-13T08:11:29.752Z,2.40
2023-08-13T08:13:58.195Z,3.15
2023-08-13T08:16:26.999Z,2.63
2023-08-13T08:18:55.684Z,2.50
2023-08-13T08:21:24.402Z,2.47
2023-08-13T08:23:54.488Z,2.75
2023-08-13T08:26:22.886Z,2.90
2023-08-13T08:28:51.470Z,2.65
2023-08-13T08:31:19.987Z,2.50
2023-08-13T08:33:50.775Z,2.47
2023-08-13T08:36:19.694Z,2.25
2023-08-13T08:38:48.161Z,2.50
2023-08-13T08:41:22.684Z,2.67
2023-08-13T08:43:51.890Z,2.17
2023-08-13T08:46:24.777Z,2.38
2023-08-13T08:48:53.340Z,2.00
2023-08-13T08:51:23.752Z,2.20
2023-08-13T08:53:56.333Z,2.45
2023-08-13T08:56:27.401Z,2.22
2023-08-13T08:58:56.137Z,2.05
2023-08-13T09:01:24.871Z,2.42
2023-08-13T09:03:53.450Z,2.45
2023-08-13T09:06:22.836Z,2.38
2023-08-13T09:08:52.539Z,1.90
2023-08-13T09:11:37.131Z,1.50
2023-08-13T09:15:26.885Z,2.37
2023-08-13T09:17:55.416Z,2.05
2023-08-13T09:20:24.041Z,2.00
2023-08-13T09:22:53.214Z,1.75
2023-08-13T09:25:22.761Z,1.90
2023-08-13T09:27:53.276Z,1.77
2023-08-13T09:30:29.414Z,1.63
2023-08-13T09:33:03.598Z,1.75
2023-08-13T09:35:34.120Z,1.98
2023-08-13T09:38:02.521Z,2.05
2023-08-13T09:40:31.061Z,1.45
2023-08-13T09:43:02.347Z,1.50
2023-08-13T09:45:34.543Z,1.30
2023-08-13T09:48:07.164Z,1.70
2023-08-13T09:50:43.830Z,1.20
2023-08-13T09:53:21.747Z,1.35
2023-08-13T09:55:56.648Z,1.20
2023-08-13T09:58:30.720Z,1.13
2023-08-13T10:01:00.143Z,1.77
2023-08-13T10:03:29.593Z,1.15
2023-08-13T10:05:58.328Z,1.30
2023-08-13T10:08:27.567Z,1.45
2023-08-13T10:10:56.255Z,1.10
2023-08-13T10:13:28.169Z,1.55
2023-08-13T10:15:57.085Z,1.17
2023-08-13T10:18:29.480Z,1.10
2023-08-13T10:20:57.854Z,1.45
2023-08-13T10:23:28.522Z,1.52
2023-08-13T10:25:57.206Z,1.67
2023-08-13T10:28:32.556Z,1.60
2023-08-13T10:31:35.204Z,1.40
2023-08-13T10:34:12.868Z,1.75
2023-08-13T10:36:52.737Z,1.55
2023-08-13T10:39:39.276Z,1.30
2023-08-13T10:42:50.734Z,1.20
2023-08-13T10:45:22.497Z,1.50
2023-08-13T10:47:53.955Z,1.00
2023-08-13T10:50:31.710Z,1.30
2023-08-13T10:53:10.101Z,1.35
2023-08-13T10:55:41.747Z,1.25
2023-08-13T10:58:23.026Z,1.45
2023-08-13T11:00:52.860Z,1.58
2023-08-13T11:03:23.675Z,1.55
2023-08-13T11:05:53.588Z,1.25
2023-08-13T11:08:37.291Z,1.55
2023-08-13T11:11:10.650Z,2.20
2023-08-13T11:13:39.199Z,2.28
2023-08-13T11:16:09.178Z,2.00
2023-08-13T11:18:38.419Z,1.50
2023-08-13T11:21:07.204Z,1.55
2023-08-13T11:23:35.873Z,1.20
2023-08-13T11:26:07.005Z,1.35
2023-08-13T11:28:35.901Z,1.80
2023-08-13T11:31:04.386Z,1.48
2023-08-13T11:33:34.272Z,1.20
2023-08-13T11:36:03.392Z,1.30
2023-08-13T11:38:32.030Z,1.35
2023-08-13T11:41:00.573Z,1.38
2023-08-13T11:43:30.994Z,1.45
2023-08-13T11:45:59.724Z,2.63
2023-08-13T11:48:31.020Z,3.05
2023-08-13T11:51:23.606Z,1.90
2023-08-13T11:53:52.622Z,1.60
2023-08-13T11:56:22.066Z,1.63
2023-08-13T11:58:51.909Z,1.38
2023-08-13T12:01:20.511Z,1.23
2023-08-13T12:03:51.469Z,1.08
2023-08-13T12:06:24.686Z,1.10
2023-08-13T12:08:55.127Z,1.10
2023-08-13T12:11:23.506Z,1.20
2023-08-13T12:13:54.137Z,1.13
2023-08-13T12:16:22.778Z,1.15
2023-08-13T12:18:51.329Z,1.35
2023-08-13T12:21:19.679Z,1.10
2023-08-13T12:23:49.580Z,1.35
2023-08-13T12:26:18.064Z,1.35
2023-08-13T12:28:49.154Z,1.35
2023-08-13T12:31:17.500Z,1.42
2023-08-13T12:33:45.868Z,1.42
2023-08-13T12:36:14.812Z,1.20
2023-08-13T12:38:52.543Z,1.70
2023-08-13T12:41:30.409Z,1.80
2023-08-13T12:44:08.300Z,1.60
2023-08-13T12:46:44.433Z,1.70
2023-08-13T12:49:12.848Z,1.75
2023-08-13T12:51:41.187Z,1.75
2023-08-13T12:54:10.955Z,1.63
2023-08-13T12:56:39.545Z,1.70
2023-08-13T12:59:07.873Z,1.67
2023-08-13T13:01:36.250Z,1.38
2023-08-13T13:04:05.187Z,1.48
2023-08-13T13:06:33.474Z,1.20
2023-08-13T13:09:01.993Z,1.73
2023-08-13T13:11:31.827Z,1.70
2023-08-13T13:14:00.286Z,1.73
2023-08-13T13:16:28.929Z,1.67
2023-08-13T13:18:57.265Z,2.42
2023-08-13T13:21:25.785Z,1.90
2023-08-13T13:23:54.606Z,2.80
2023-08-13T13:26:22.928Z,2.88
2023-08-13T13:28:52.878Z,2.83
2023-08-13T13:31:21.228Z,2.88
2023-08-13T13:33:50.503Z,2.05
2023-08-13T13:36:19.799Z,1.60
2023-08-13T13:38:48.082Z,2.55
2023-08-13T13:41:16.600Z,2.30
2023-08-13T13:43:44.894Z,2.35
2023-08-13T13:46:14.731Z,2.45
2023-08-13T13:48:43.227Z,2.40
2023-08-13T13:51:11.556Z,2.47
2023-08-13T13:53:41.223Z,2.38
2023-08-13T13:56:09.707Z,1.98
2023-08-13T13:58:38.179Z,2.20
2023-08-13T14:01:06.643Z,2.35
2023-08-13T14:03:36.626Z,2.05
2023-08-13T14:06:05.176Z,1.98
2023-08-13T14:08:33.663Z,1.98
2023-08-13T14:11:04.960Z,2.13
2023-08-13T14:13:35.206Z,2.30
2023-08-13T14:16:05.055Z,3.10
2023-08-13T14:18:33.575Z,3.03
2023-08-13T14:21:03.250Z,2.42
2023-08-13T14:23:31.913Z,2.20
2023-08-13T14:26:00.418Z,1.52
2023-08-13T14:28:29.090Z,1.70
2023-08-13T14:30:57.464Z,2.05
2023-08-13T14:33:25.992Z,1.98
2023-08-13T14:35:54.721Z,1.67
2023-08-13T14:38:25.170Z,1.50
2023-08-13T14:40:57.442Z,1.90
2023-08-13T14:43:25.914Z,1.77
2023-08-13T14:45:54.457Z,1.83
2023-08-13T14:48:22.945Z,1.50
2023-08-13T14:50:51.484Z,1.73
2023-08-13T14:53:19.778Z,1.67
2023-08-13T14:55:52.291Z,1.60
2023-08-13T14:58:20.676Z,1.50
2023-08-13T15:00:49.272Z,1.27
2023-08-13T15:03:17.843Z,1.40
2023-08-13T15:05:46.134Z,1.40
2023-08-13T15:08:14.513Z,1.10
2023-08-13T15:10:43.059Z,1.13
2023-08-13T15:13:12.591Z,1.00
2023-08-13T15:15:41.308Z,0.98
2023-08-13T15:18:09.738Z,1.17
2023-08-13T15:20:38.332Z,1.00
2023-08-13T15:23:07.052Z,1.20
2023-08-13T15:25:54.676Z,1.00
2023-08-13T15:28:25.803Z,0.55
2023-08-13T15:30:56.670Z,0.90
2023-08-13T15:33:28.149Z,0.80
2023-08-13T15:35:58.897Z,0.90
2023-08-13T15:38:30.044Z,1.10
2023-08-13T15:41:00.578Z,1.17
2023-08-13T15:43:33.386Z,1.33
2023-08-13T15:46:01.712Z,0.95
2023-08-13T15:48:30.252Z,0.70
2023-08-13T15:50:58.651Z,0.60
2023-08-13T15:53:27.004Z,0.70
2023-08-13T15:55:55.581Z,0.80
2023-08-13T15:58:24.090Z,0.60
2023-08-13T16:00:56.347Z,0.60
2023-08-13T16:03:24.940Z,0.80
2023-08-13T16:05:53.224Z,0.60
2023-08-13T16:08:21.807Z,0.90
2023-08-13T16:10:58.581Z,1.08
2023-08-13T16:13:28.664Z,1.00
2023-08-13T16:16:01.312Z,0.80
2023-08-13T16:18:32.759Z,1.10
2023-08-13T16:21:01.013Z,1.00
2023-08-13T16:23:29.266Z,0.80
2023-08-13T16:25:58.618Z,0.70
2023-08-13T16:28:27.258Z,0.73
2023-08-13T16:30:57.235Z,0.85
2023-08-13T16:33:25.775Z,0.70
2023-08-13T16:35:54.239Z,0.90
2023-08-13T16:38:22.575Z,0.88
2023-08-13T16:40:51.818Z,0.90
2023-08-13T16:43:20.304Z,0.95
2023-08-13T16:45:48.812Z,0.90
2023-08-13T16:48:18.557Z,1.00
2023-08-13T16:50:47.161Z,0.88
2023-08-13T16:53:15.575Z,0.98
2023-08-13T16:55:44.878Z,1.00
2023-08-13T16:58:13.049Z,0.77
2023-08-13T17:00:41.527Z,1.02
2023-08-13T17:03:10.404Z,0.65
2023-08-13T17:05:40.730Z,1.25
2023-08-13T17:08:09.215Z,0.98
2023-08-13T17:10:37.582Z,1.00
2023-08-13T17:13:06.267Z,0.80
2023-08-13T17:15:34.796Z,0.90
2023-08-13T17:18:03.171Z,1.10
2023-08-13T17:20:31.589Z,1.55
2023-08-13T17:23:01.318Z,1.30
2023-08-13T17:25:29.893Z,0.75
2023-08-13T17:27:59.532Z,1.23
2023-08-13T17:30:29.156Z,0.95
2023-08-13T17:32:58.464Z,1.00
2023-08-13T17:35:26.847Z,1.02
2023-08-13T17:37:55.263Z,1.40
2023-08-13T17:40:25.295Z,1.10
2023-08-13T17:42:53.717Z,1.25
2023-08-13T17:45:22.246Z,1.15
2023-08-13T17:47:52.012Z,1.17
2023-08-13T17:50:20.755Z,1.05
2023-08-13T17:52:49.266Z,1.20
2023-08-13T17:55:18.072Z,1.05
2023-08-13T17:57:50.462Z,0.90
2023-08-13T18:00:18.886Z,1.17
2023-08-13T18:02:47.412Z,1.92
2023-08-13T18:05:15.938Z,1.58
2023-08-13T18:07:44.427Z,1.20
2023-08-13T18:10:12.740Z,1.33
2023-08-13T18:12:41.196Z,1.20
2023-08-13T18:15:11.536Z,1.10
2023-08-13T18:17:40.027Z,1.45
2023-08-13T18:20:10.636Z,1.42
2023-08-13T18:22:42.796Z,1.50
2023-08-13T18:25:12.812Z,1.30
2023-08-13T18:27:41.156Z,1.58
2023-08-13T18:30:12.138Z,1.30
2023-08-13T18:32:40.774Z,1.58
2023-08-13T18:35:10.137Z,1.40
2023-08-13T18:37:38.600Z,1.42
2023-08-13T18:40:10.820Z,2.30
2023-08-13T18:42:39.647Z,2.05
2023-08-13T18:45:10.838Z,1.50
2023-08-13T18:47:39.112Z,2.00
2023-08-13T18:50:09.321Z,1.50
2023-08-13T18:52:38.237Z,1.40
2023-08-13T18:55:10.120Z,1.60
2023-08-13T18:57:39.449Z,1.35
2023-08-13T19:00:11.559Z,1.42
2023-08-13T19:02:40.661Z,1.50
2023-08-13T19:05:09.998Z,1.50
2023-08-13T19:07:38.926Z,1.40
2023-08-13T19:10:09.086Z,1.17
2023-08-13T19:12:37.497Z,1.83
2023-08-13T19:15:07.141Z,1.83
2023-08-13T19:17:36.807Z,1.60
2023-08-13T19:20:06.434Z,1.27
2023-08-13T19:22:35.033Z,1.80
2023-08-13T19:25:03.489Z,2.20
2023-08-13T19:27:31.872Z,2.38
2023-08-13T19:30:00.371Z,2.28
2023-08-13T19:32:29.098Z,1.90
2023-08-13T19:34:58.779Z,1.80
2023-08-13T19:37:27.340Z,1.70
2023-08-13T19:39:55.947Z,2.08
2023-08-13T19:42:24.419Z,1.88
2023-08-13T19:44:53.829Z,1.77
2023-08-13T19:47:22.180Z,2.10
2023-08-13T19:49:50.771Z,1.70
2023-08-13T19:52:20.596Z,2.25
2023-08-13T19:54:49.061Z,2.97
2023-08-13T19:57:17.558Z,3.58
2023-08-13T19:59:45.814Z,3.80
2023-08-13T20:02:14.294Z,4.30
2023-08-13T20:04:42.818Z,3.38
2023-08-13T20:07:11.195Z,3.20
2023-08-13T20:09:43.747Z,2.58
2023-08-13T20:12:12.236Z,2.60
2023-08-13T20:14:40.652Z,2.28
2023-08-13T20:17:09.342Z,2.33
2023-08-13T20:19:37.783Z,2.47
2023-08-13T20:22:07.479Z,2.20
2023-08-13T20:24:36.068Z,5.13
2023-08-13T20:27:06.077Z,5.25
2023-08-13T20:29:34.562Z,4.70
2023-08-13T20:32:03.045Z,2.95
2023-08-13T20:34:31.419Z,1.98
2023-08-13T20:37:00.105Z,1.95
2023-08-13T20:39:29.010Z,2.00
2023-08-13T20:41:57.612Z,1.95
2023-08-13T20:44:27.569Z,1.83
2023-08-13T20:46:56.191Z,2.13
2023-08-13T20:49:25.452Z,1.90
2023-08-13T20:51:54.400Z,2.03
2023-08-13T20:54:26.114Z,1.73
2023-08-13T20:56:55.741Z,1.90
2023-08-13T20:59:24.227Z,2.28
2023-08-13T21:01:54.138Z,1.95
2023-08-13T21:04:22.667Z,2.20
2023-08-13T21:06:51.275Z,2.28
2023-08-13T21:09:19.793Z,2.50
2023-08-13T21:11:48.221Z,2.17
2023-08-13T21:14:16.544Z,2.20
2023-08-13T21:16:44.988Z,3.53
2023-08-13T21:19:14.863Z,4.55
2023-08-13T21:21:43.460Z,5.03
2023-08-13T21:24:12.019Z,3.28
2023-08-13T21:26:40.436Z,3.20
2023-08-13T21:29:08.872Z,2.72
2023-08-13T21:31:37.291Z,4.95
2023-08-13T21:34:06.130Z,5.15
2023-08-13T21:36:36.193Z,5.35
2023-08-13T21:39:05.044Z,4.65
2023-08-13T21:41:33.336Z,5.22
2023-08-13T21:44:01.694Z,5.00
2023-08-13T21:46:30.129Z,4.25
2023-08-13T21:48:58.579Z,3.05
2023-08-13T21:51:27.022Z,2.70
2023-08-13T21:53:57.278Z,3.30
2023-08-13T21:56:25.646Z,2.45
2023-08-13T21:58:53.912Z,2.95
2023-08-13T22:01:22.359Z,2.72
2023-08-13T22:03:50.826Z,2.42
2023-08-13T22:06:19.260Z,2.60
2023-08-13T22:08:47.755Z,2.63
2023-08-13T22:11:17.493Z,2.55
2023-08-13T22:13:46.145Z,2.20
2023-08-13T22:16:14.703Z,2.90
2023-08-13T22:18:44.010Z,2.20
2023-08-13T22:21:12.515Z,2.38
2023-08-13T22:23:41.091Z,2.33
2023-08-13T22:26:18.126Z,3.10
2023-08-13T22:28:48.906Z,2.67
2023-08-13T22:31:17.413Z,2.53
2023-08-13T22:33:45.786Z,2.97
2023-08-13T22:36:16.416Z,3.17
2023-08-13T22:38:45.093Z,3.78
2023-08-13T22:41:13.612Z,3.42
2023-08-13T22:43:42.000Z,2.97
2023-08-13T22:46:11.803Z,3.38
2023-08-13T22:48:40.268Z,2.70
2023-08-13T22:51:08.637Z,2.63
2023-08-13T22:53:37.427Z,2.70
2023-08-13T22:56:06.402Z,2.60
2023-08-13T22:58:34.780Z,2.85
2023-08-13T23:01:04.006Z,3.10
2023-08-13T23:03:33.823Z,3.72
2023-08-13T23:06:02.309Z,3.55
2023-08-13T23:08:30.850Z,3.38
2023-08-13T23:10:59.476Z,3.53
2023-08-13T23:13:27.874Z,3.85
2023-08-13T23:15:56.301Z,3.78
2023-08-13T23:18:25.019Z,3.20
2023-08-13T23:20:55.111Z,3.38
2023-08-13T23:23:23.596Z,3.13
2023-08-13T23:25:51.953Z,3.40
2023-08-13T23:28:20.496Z,3.17
2023-08-13T23:30:49.150Z,3.35
2023-08-13T23:33:18.018Z,3.28
2023-08-13T23:35:46.720Z,3.38
2023-08-13T23:38:16.751Z,3.33
2023-08-13T23:40:46.040Z,3.35
2023-08-13T23:43:14.402Z,2.92
2023-08-13T23:45:44.513Z,2.90
2023-08-13T23:48:13.041Z,3.03
2023-08-13T23:50:55.183Z,3.30
2023-08-13T23:53:26.112Z,3.00
2023-08-13T23:55:54.435Z,3.50
2023-08-13T23:58:23.525Z,3.03
